Time;durP1;ratioP1;P1;durP2;ratioP2;P2;SDS_P1;SDS_P2;PMS_P1;PMS_P2;Temp;Humidity;BMP_temperature;BMP_pressure;BME280_temperature;BME280_humidity;BME280_pressure;Samples;Min_cycle;Max_cycle;Signal;HPM_P1;HPM_P2
2023/03/09 00:00:57;;;;;;;10.23;6.10;;;;;;;;;;5072534;28;20484;-71
2023/03/09 00:03:24;;;;;;;8.87;5.63;;;;;;;;;;5075667;28;20462;-71
2023/03/09 00:05:53;;;;;;;11.03;6.97;;;;;;;;;;5075261;28;20459;-72
2023/03/09 00:08:22;;;;;;;11.40;8.03;;;;;;;;;;5075596;28;20483;-71
2023/03/09 00:10:52;;;;;;;9.00;6.57;;;;;;;;;;5075501;28;20467;-71
2023/03/09 00:13:19;;;;;;;6.73;6.00;;;;;;;;;;5075517;28;20459;-71
2023/03/09 00:15:49;;;;;;;9.30;8.30;;;;;;;;;;5075371;28;20453;-71
2023/03/09 00:18:17;;;;;;;7.50;6.30;;;;;;;;;;5075801;28;20443;-71
2023/03/09 00:20:44;;;;;;;10.57;6.30;;;;;;;;;;5075291;28;20998;-72
2023/03/09 00:23:11;;;;;;;8.87;6.30;;;;;;;;;;5075505;28;20458;-72
2023/03/09 00:25:40;;;;;;;7.83;6.03;;;;;;;;;;5075497;28;20452;-72
2023/03/09 00:28:07;;;;;;;8.37;5.87;;;;;;;;;;5075436;28;20488;-72
2023/03/09 00:30:34;;;;;;;10.83;6.40;;;;;;;;;;5075260;28;20476;-72
2023/03/09 00:33:01;;;;;;;9.40;7.40;;;;;;;;;;5075503;28;20925;-72
2023/03/09 00:35:28;;;;;;;7.40;5.80;;;;;;;;;;5074887;28;20443;-72
2023/03/09 00:37:55;;;;;;;8.67;6.37;;;;;;;;;;5075028;28;20463;-71
2023/03/09 00:40:22;;;;;;;8.60;6.10;;;;;;;;;;5075105;28;20472;-71
2023/03/09 00:42:51;;;;;;;8.87;5.17;;;;;;;;;;5075100;28;20804;-71
2023/03/09 00:45:18;;;;;;;8.87;5.90;;;;;;;;;;5074857;28;20448;-71
2023/03/09 00:47:45;;;;;;;7.97;5.77;;;;;;;;;;5074910;28;20487;-71
2023/03/09 00:50:13;;;;;;;8.97;6.20;;;;;;;;;;5074872;28;20839;-71
2023/03/09 00:52:40;;;;;;;8.10;6.93;;;;;;;;;;5074841;28;20452;-71
2023/03/09 00:55:07;;;;;;;8.83;6.10;;;;;;;;;;5074649;28;20456;-72
2023/03/09 00:57:35;;;;;;;7.87;6.37;;;;;;;;;;5074729;28;20463;-72
2023/03/09 01:00:06;;;;;;;11.00;5.77;;;;;;;;;;5074901;28;20509;-72
2023/03/09 01:02:34;;;;;;;7.47;6.30;;;;;;;;;;5074928;28;20494;-71
2023/03/09 01:05:01;;;;;;;8.07;5.63;;;;;;;;;;5074591;28;20464;-71
2023/03/09 01:07:30;;;;;;;9.93;5.60;;;;;;;;;;5074601;28;20485;-71
2023/03/09 01:09:57;;;;;;;15.93;5.73;;;;;;;;;;5074461;28;20496;-72
2023/03/09 01:12:24;;;;;;;8.33;5.70;;;;;;;;;;5074548;28;20452;-71
2023/03/09 01:14:54;;;;;;;8.03;5.20;;;;;;;;;;5074120;28;20447;-71
2023/03/09 01:17:23;;;;;;;9.80;6.40;;;;;;;;;;5074301;28;20466;-72
2023/03/09 01:19:50;;;;;;;6.60;4.87;;;;;;;;;;5074458;28;20941;-71
2023/03/09 01:22:17;;;;;;;9.53;5.33;;;;;;;;;;5074140;28;20443;-71
2023/03/09 01:24:44;;;;;;;5.10;4.60;;;;;;;;;;5074037;28;20452;-71
2023/03/09 01:27:12;;;;;;;6.70;5.20;;;;;;;;;;5074038;28;20487;-71
2023/03/09 01:29:39;;;;;;;5.43;4.67;;;;;;;;;;5074072;28;20943;-71
2023/03/09 01:32:06;;;;;;;9.17;5.27;;;;;;;;;;5073886;28;20451;-71
2023/03/09 01:34:35;;;;;;;7.70;5.80;;;;;;;;;;5073896;28;20452;-71
2023/03/09 01:37:02;;;;;;;7.13;5.77;;;;;;;;;;5073779;28;20472;-71
2023/03/09 01:39:29;;;;;;;6.20;5.60;;;;;;;;;;5074152;28;20458;-71
2023/03/09 01:41:56;;;;;;;6.40;5.27;;;;;;;;;;5074018;28;20992;-72
2023/03/09 01:44:23;;;;;;;7.40;4.77;;;;;;;;;;5073498;28;20452;-71
2023/03/09 01:46:52;;;;;;;7.90;4.73;;;;;;;;;;5073718;28;20460;-71
2023/03/09 01:49:25;;;;;;;6.50;4.50;;;;;;;;;;5073606;28;20494;-72
2023/03/09 01:51:56;;;;;;;10.43;5.73;;;;;;;;;;5073973;28;20533;-71
2023/03/09 01:54:26;;;;;;;7.30;4.53;;;;;;;;;;5073423;28;20452;-72
2023/03/09 01:56:55;;;;;;;7.73;5.30;;;;;;;;;;5073691;28;20452;-71
2023/03/09 01:59:25;;;;;;;6.13;4.60;;;;;;;;;;5073508;28;20451;-71
2023/03/09 02:01:53;;;;;;;11.23;4.90;;;;;;;;;;5073734;28;20475;-71
2023/03/09 02:04:23;;;;;;;9.13;5.13;;;;;;;;;;5072899;28;20456;-72
2023/03/09 02:06:50;;;;;;;7.23;4.10;;;;;;;;;;5073375;28;20451;-71
2023/03/09 02:09:23;;;;;;;7.90;4.47;;;;;;;;;;5073306;28;20513;-71
2023/03/09 02:11:50;;;;;;;5.27;3.90;;;;;;;;;;5073579;28;20834;-72
2023/03/09 02:14:18;;;;;;;5.07;3.87;;;;;;;;;;5073302;28;20456;-72
2023/03/09 02:16:45;;;;;;;5.47;3.73;;;;;;;;;;5073456;28;20459;-72
2023/03/09 02:19:17;;;;;;;5.97;3.87;;;;;;;;;;5073209;28;20451;-71
2023/03/09 02:21:48;;;;;;;6.60;3.83;;;;;;;;;;5073386;28;21003;-72
2023/03/09 02:24:19;;;;;;;7.30;3.77;;;;;;;;;;5072732;28;20894;-72
2023/03/09 02:26:49;;;;;;;6.97;3.47;;;;;;;;;;5073674;28;20436;-71
2023/03/09 02:29:18;;;;;;;4.70;3.60;;;;;;;;;;5073320;28;21051;-72
2023/03/09 02:31:45;;;;;;;7.30;4.80;;;;;;;;;;5073297;28;20470;-72
2023/03/09 02:34:13;;;;;;;5.43;3.90;;;;;;;;;;5073127;28;20459;-72
2023/03/09 02:36:40;;;;;;;8.33;4.00;;;;;;;;;;5074108;28;20839;-72
2023/03/09 02:39:11;;;;;;;4.40;3.30;;;;;;;;;;5073067;28;20446;-72
2023/03/09 02:41:38;;;;;;;6.03;4.17;;;;;;;;;;5073291;28;20479;-72
2023/03/09 02:44:06;;;;;;;4.00;3.07;;;;;;;;;;5072765;28;20451;-72
2023/03/09 02:46:34;;;;;;;5.60;3.10;;;;;;;;;;5073010;28;20447;-72
2023/03/09 02:49:01;;;;;;;4.40;3.10;;;;;;;;;;5072710;28;20495;-72
2023/03/09 02:51:28;;;;;;;7.37;4.53;;;;;;;;;;5073082;28;20838;-71
2023/03/09 02:53:56;;;;;;;3.93;3.40;;;;;;;;;;5072982;28;20451;-72
2023/03/09 02:56:23;;;;;;;4.87;2.80;;;;;;;;;;5072848;28;20455;-72
2023/03/09 02:58:50;;;;;;;4.40;2.80;;;;;;;;;;5073173;28;20447;-71
2023/03/09 03:01:18;;;;;;;3.50;2.50;;;;;;;;;;5072707;28;20475;-72
2023/03/09 03:03:46;;;;;;;6.00;3.23;;;;;;;;;;5072713;28;20816;-73
2023/03/09 03:06:14;;;;;;;3.80;1.80;;;;;;;;;;5072251;28;20455;-72
2023/03/09 03:08:41;;;;;;;2.70;2.23;;;;;;;;;;5073039;28;20494;-71
2023/03/09 03:11:08;;;;;;;4.57;2.47;;;;;;;;;;5072919;28;20470;-72
2023/03/09 03:13:36;;;;;;;2.00;1.63;;;;;;;;;;5072812;28;20451;-72
2023/03/09 03:16:03;;;;;;;2.10;1.47;;;;;;;;;;5072881;28;20534;-71
2023/03/09 03:18:30;;;;;;;1.63;1.07;;;;;;;;;;5072682;28;20467;-72
2023/03/09 03:20:59;;;;;;;1.50;1.07;;;;;;;;;;5072840;28;20479;-72
2023/03/09 03:23:26;;;;;;;1.60;0.97;;;;;;;;;;5072744;28;20470;-72
2023/03/09 03:25:53;;;;;;;1.30;0.90;;;;;;;;;;5072497;28;20448;-72
2023/03/09 03:28:20;;;;;;;1.50;1.00;;;;;;;;;;5072680;28;20487;-72
2023/03/09 03:30:51;;;;;;;1.53;1.13;;;;;;;;;;5072754;28;20471;-72
2023/03/09 03:33:18;;;;;;;1.90;1.20;;;;;;;;;;5072849;28;20439;-72
2023/03/09 03:35:45;;;;;;;1.50;1.00;;;;;;;;;;5072398;28;20513;-72
2023/03/09 03:38:14;;;;;;;1.63;1.10;;;;;;;;;;5076337;28;20447;-72
2023/03/09 03:40:41;;;;;;;1.20;0.80;;;;;;;;;;5076390;28;20841;-72
2023/03/09 03:43:08;;;;;;;1.23;0.90;;;;;;;;;;5076265;28;20447;-72
2023/03/09 03:45:35;;;;;;;1.90;0.97;;;;;;;;;;5076259;28;20470;-72
2023/03/09 03:48:02;;;;;;;2.80;1.07;;;;;;;;;;5076265;28;20996;-72
2023/03/09 03:50:29;;;;;;;2.93;1.00;;;;;;;;;;5076373;28;20499;-72
2023/03/09 03:52:56;;;;;;;2.17;1.00;;;;;;;;;;5076020;28;20447;-72
2023/03/09 03:55:25;;;;;;;2.13;0.90;;;;;;;;;;5094308;28;20931;-72
2023/03/09 03:57:52;;;;;;;1.73;0.80;;;;;;;;;;5096134;28;20465;-72
2023/03/09 04:00:20;;;;;;;1.47;0.87;;;;;;;;;;5095978;28;20472;-71
2023/03/09 04:02:47;;;;;;;1.40;0.80;;;;;;;;;;5096439;28;20451;-72
2023/03/09 04:05:14;;;;;;;1.90;1.17;;;;;;;;;;5095413;28;20462;-72
2023/03/09 04:07:41;;;;;;;1.30;0.80;;;;;;;;;;5095974;28;20453;-72
2023/03/09 04:10:09;;;;;;;1.50;1.03;;;;;;;;;;5095898;28;20979;-72
2023/03/09 04:12:38;;;;;;;1.60;1.20;;;;;;;;;;5095877;28;20446;-72
2023/03/09 04:15:05;;;;;;;7.23;1.17;;;;;;;;;;5095885;28;20455;-72
2023/03/09 04:17:32;;;;;;;3.23;1.00;;;;;;;;;;5096034;28;20438;-72
2023/03/09 04:20:00;;;;;;;1.60;1.10;;;;;;;;;;5095839;28;20463;-72
2023/03/09 04:22:27;;;;;;;2.60;1.27;;;;;;;;;;5095569;28;20453;-72
2023/03/09 04:24:54;;;;;;;3.27;1.47;;;;;;;;;;5095456;28;20481;-72
2023/03/09 04:27:21;;;;;;;2.53;1.23;;;;;;;;;;5095542;28;20447;-72
2023/03/09 04:29:49;;;;;;;1.80;1.10;;;;;;;;;;5095668;28;20847;-72
2023/03/09 04:32:16;;;;;;;4.40;1.70;;;;;;;;;;5095478;28;20450;-72
2023/03/09 04:34:44;;;;;;;3.00;1.10;;;;;;;;;;5095603;28;20828;-72
2023/03/09 04:37:12;;;;;;;1.50;1.17;;;;;;;;;;5094847;28;20844;-73
2023/03/09 04:39:39;;;;;;;2.00;1.17;;;;;;;;;;5095489;28;20453;-73
2023/03/09 04:42:07;;;;;;;2.03;1.10;;;;;;;;;;5095605;28;20447;-72
2023/03/09 04:44:34;;;;;;;1.80;1.00;;;;;;;;;;5095160;28;20447;-72
2023/03/09 04:47:02;;;;;;;4.13;1.00;;;;;;;;;;5094690;28;20944;-72
2023/03/09 04:49:30;;;;;;;1.50;1.00;;;;;;;;;;5095130;28;20486;-72
2023/03/09 04:51:57;;;;;;;3.63;1.37;;;;;;;;;;5094988;28;20534;-72
2023/03/09 04:54:24;;;;;;;3.90;1.40;;;;;;;;;;5095136;28;20823;-72
2023/03/09 04:56:52;;;;;;;2.73;2.03;;;;;;;;;;5095091;28;20480;-72
2023/03/09 04:59:19;;;;;;;5.30;2.33;;;;;;;;;;5098954;28;20462;-73
2023/03/09 05:01:46;;;;;;;2.27;1.10;;;;;;;;;;5095027;28;20975;-73
2023/03/09 05:04:14;;;;;;;2.37;1.40;;;;;;;;;;5094918;28;20458;-73
2023/03/09 05:06:41;;;;;;;1.73;1.37;;;;;;;;;;5095148;28;20469;-73
2023/03/09 05:09:09;;;;;;;2.40;1.80;;;;;;;;;;5094944;28;20486;-73
2023/03/09 05:11:36;;;;;;;3.10;1.43;;;;;;;;;;5095074;28;20474;-73
2023/03/09 05:14:03;;;;;;;2.80;1.10;;;;;;;;;;5094862;28;20447;-73
2023/03/09 05:16:30;;;;;;;4.80;1.53;;;;;;;;;;5094668;28;20455;-72
2023/03/09 05:18:57;;;;;;;1.87;1.27;;;;;;;;;;5094866;28;20473;-72
2023/03/09 05:21:26;;;;;;;1.30;0.90;;;;;;;;;;5094499;28;20493;-72
2023/03/09 05:23:53;;;;;;;2.70;1.00;;;;;;;;;;5094785;28;20478;-73
2023/03/09 05:26:20;;;;;;;1.20;0.90;;;;;;;;;;5094768;28;20462;-72
2023/03/09 05:28:47;;;;;;;3.47;1.73;;;;;;;;;;5094695;28;20870;-73
2023/03/09 05:31:15;;;;;;;2.60;1.00;;;;;;;;;;5094651;28;20503;-73
2023/03/09 05:33:42;;;;;;;3.07;1.00;;;;;;;;;;5094401;28;20462;-72
2023/03/09 05:36:15;;;;;;;3.97;1.10;;;;;;;;;;5094411;28;20469;-73
2023/03/09 05:38:44;;;;;;;2.87;1.33;;;;;;;;;;5094620;28;20450;-73
2023/03/09 05:41:11;;;;;;;3.50;1.10;;;;;;;;;;5094254;28;20475;-72
2023/03/09 05:43:41;;;;;;;1.70;1.17;;;;;;;;;;5094235;28;20546;-72
2023/03/09 05:46:09;;;;;;;3.50;1.60;;;;;;;;;;5094462;28;20450;-73
2023/03/09 05:48:36;;;;;;;2.07;1.20;;;;;;;;;;5094049;28;20494;-72
2023/03/09 05:51:04;;;;;;;1.20;0.90;;;;;;;;;;5094204;28;20998;-72
2023/03/09 05:53:31;;;;;;;1.87;1.00;;;;;;;;;;5094430;28;20508;-72
2023/03/09 05:56:00;;;;;;;2.47;1.27;;;;;;;;;;5093751;28;20451;-72
2023/03/09 05:58:27;;;;;;;2.13;1.00;;;;;;;;;;5093729;28;20446;-72
2023/03/09 06:00:56;;;;;;;1.57;0.80;;;;;;;;;;5093964;28;20471;-72
2023/03/09 06:03:23;;;;;;;1.83;0.93;;;;;;;;;;5093886;28;20466;-72
2023/03/09 06:05:58;;;;;;;1.30;0.80;;;;;;;;;;5094080;28;20788;-72
2023/03/09 06:08:25;;;;;;;1.73;0.93;;;;;;;;;;5093765;28;20450;-72
2023/03/09 06:10:52;;;;;;;2.23;0.90;;;;;;;;;;5093997;28;20470;-72
2023/03/09 06:13:21;;;;;;;1.63;1.10;;;;;;;;;;5094089;28;20450;-72
2023/03/09 06:15:48;;;;;;;1.97;0.90;;;;;;;;;;5094025;28;20455;-72
2023/03/09 06:18:17;;;;;;;1.53;1.00;;;;;;;;;;5093632;28;20454;-72
2023/03/09 06:20:44;;;;;;;2.53;0.93;;;;;;;;;;5093885;28;20558;-72
2023/03/09 06:23:11;;;;;;;1.20;0.80;;;;;;;;;;5093548;28;20453;-72
2023/03/09 06:25:39;;;;;;;1.30;0.80;;;;;;;;;;5093892;28;20821;-72
2023/03/09 06:28:06;;;;;;;1.57;0.90;;;;;;;;;;5093419;28;20461;-72
2023/03/09 06:30:35;;;;;;;1.23;0.90;;;;;;;;;;5093639;28;20995;-72
2023/03/09 06:33:02;;;;;;;2.73;1.10;;;;;;;;;;5093644;28;20966;-72
2023/03/09 06:35:29;;;;;;;1.63;1.00;;;;;;;;;;5093874;28;20802;-72
2023/03/09 06:37:57;;;;;;;1.97;1.17;;;;;;;;;;5093242;28;20470;-72
2023/03/09 06:40:24;;;;;;;1.37;0.90;;;;;;;;;;5093626;28;20885;-72
2023/03/09 06:42:52;;;;;;;1.57;1.10;;;;;;;;;;5093484;28;20446;-72
2023/03/09 06:45:21;;;;;;;1.40;0.90;;;;;;;;;;5093439;28;20958;-72
2023/03/09 06:47:49;;;;;;;1.77;0.90;;;;;;;;;;5093250;28;20461;-72
2023/03/09 06:50:16;;;;;;;1.40;0.90;;;;;;;;;;5093114;28;20499;-72
2023/03/09 06:52:44;;;;;;;1.97;1.10;;;;;;;;;;5092933;28;20475;-72
2023/03/09 06:55:11;;;;;;;1.63;0.90;;;;;;;;;;5093085;28;20451;-72
2023/03/09 06:57:38;;;;;;;1.77;0.90;;;;;;;;;;5093096;28;20454;-73
2023/03/09 07:00:06;;;;;;;2.37;1.00;;;;;;;;;;5093620;28;20462;-73
2023/03/09 07:02:33;;;;;;;1.67;1.10;;;;;;;;;;5093680;28;20862;-73
2023/03/09 07:05:02;;;;;;;1.20;0.90;;;;;;;;;;5092994;28;20545;-73
2023/03/09 07:07:29;;;;;;;1.87;1.20;;;;;;;;;;5093092;28;20485;-73
2023/03/09 07:09:56;;;;;;;2.67;2.47;;;;;;;;;;5093438;28;20466;-73
2023/03/09 07:12:24;;;;;;;1.73;0.97;;;;;;;;;;5097600;28;20808;-73
2023/03/09 07:14:51;;;;;;;1.30;0.90;;;;;;;;;;5097454;28;20451;-73
2023/03/09 07:17:18;;;;;;;1.30;0.70;;;;;;;;;;5097279;28;20447;-73
2023/03/09 07:19:46;;;;;;;1.27;0.97;;;;;;;;;;5097495;28;20454;-73
2023/03/09 07:22:14;;;;;;;1.63;1.10;;;;;;;;;;5097139;28;20450;-73
2023/03/09 07:24:41;;;;;;;1.20;0.80;;;;;;;;;;5097275;28;20919;-73
2023/03/09 07:27:09;;;;;;;1.40;1.00;;;;;;;;;;5096742;28;20470;-73
2023/03/09 07:29:38;;;;;;;1.47;0.87;;;;;;;;;;5096849;28;20474;-73
2023/03/09 07:32:05;;;;;;;1.30;0.80;;;;;;;;;;5096912;28;20490;-72
2023/03/09 07:34:34;;;;;;;1.40;0.83;;;;;;;;;;5097504;28;20447;-73
2023/03/09 07:37:01;;;;;;;1.40;1.10;;;;;;;;;;5096639;28;20462;-72
2023/03/09 07:39:30;;;;;;;1.30;1.00;;;;;;;;;;5097120;28;20442;-73
2023/03/09 07:41:57;;;;;;;1.40;0.90;;;;;;;;;;5096507;28;20568;-73
2023/03/09 07:44:24;;;;;;;1.93;1.00;;;;;;;;;;5096874;28;20461;-72
2023/03/09 07:46:51;;;;;;;2.03;1.07;;;;;;;;;;5096879;28;20817;-73
2023/03/09 07:49:19;;;;;;;3.03;1.20;;;;;;;;;;5096910;28;20494;-73
2023/03/09 07:51:46;;;;;;;2.47;1.20;;;;;;;;;;5096622;28;20470;-73
2023/03/09 07:54:14;;;;;;;2.13;1.10;;;;;;;;;;5096765;28;20453;-73
2023/03/09 07:56:47;;;;;;;2.27;1.10;;;;;;;;;;5096381;28;20458;-73
2023/03/09 07:59:15;;;;;;;2.57;1.20;;;;;;;;;;5096451;28;20480;-72
2023/03/09 08:01:42;;;;;;;1.60;0.90;;;;;;;;;;5096304;28;20467;-72
2023/03/09 08:04:09;;;;;;;4.70;1.13;;;;;;;;;;5096611;28;20444;-73
2023/03/09 08:06:39;;;;;;;1.40;0.87;;;;;;;;;;5096668;28;20918;-73
2023/03/09 08:09:06;;;;;;;2.03;1.00;;;;;;;;;;5095959;28;20454;-73
2023/03/09 08:11:33;;;;;;;1.90;1.30;;;;;;;;;;5096209;28;20474;-73
2023/03/09 08:14:02;;;;;;;1.90;1.17;;;;;;;;;;5096322;28;20461;-72
2023/03/09 08:16:29;;;;;;;5.43;1.20;;;;;;;;;;5096536;28;20938;-72
2023/03/09 08:18:56;;;;;;;2.00;1.20;;;;;;;;;;5096244;28;20456;-73
2023/03/09 08:21:24;;;;;;;1.70;1.00;;;;;;;;;;5095333;28;20467;-73
2023/03/09 08:23:51;;;;;;;1.60;1.27;;;;;;;;;;5095872;28;20443;-73
2023/03/09 08:26:18;;;;;;;1.37;1.00;;;;;;;;;;5095759;28;20479;-73
2023/03/09 08:28:46;;;;;;;7.87;1.17;;;;;;;;;;5096003;28;20447;-72
2023/03/09 08:31:16;;;;;;;1.80;1.40;;;;;;;;;;5095539;28;20508;-73
2023/03/09 08:33:44;;;;;;;3.07;1.30;;;;;;;;;;5095878;28;20446;-73
2023/03/09 08:36:12;;;;;;;1.80;1.00;;;;;;;;;;5095488;28;20523;-73
2023/03/09 08:38:39;;;;;;;1.90;1.23;;;;;;;;;;5095502;28;20439;-73
2023/03/09 08:41:06;;;;;;;3.20;1.10;;;;;;;;;;5095707;28;20474;-72
2023/03/09 08:43:33;;;;;;;1.93;1.00;;;;;;;;;;5095754;28;20541;-72
2023/03/09 08:46:00;;;;;;;1.40;1.00;;;;;;;;;;5095666;28;20935;-72
2023/03/09 08:48:29;;;;;;;1.67;1.00;;;;;;;;;;5095564;28;20447;-72
2023/03/09 08:50:56;;;;;;;1.30;0.80;;;;;;;;;;5095464;28;20497;-72
2023/03/09 08:53:23;;;;;;;1.20;0.80;;;;;;;;;;5095143;28;20477;-72
2023/03/09 08:55:51;;;;;;;3.23;0.93;;;;;;;;;;5095485;28;20461;-72
2023/03/09 08:58:18;;;;;;;1.50;0.90;;;;;;;;;;5095440;28;20461;-72
2023/03/09 09:00:45;;;;;;;1.67;1.10;;;;;;;;;;5094992;28;20467;-73
2023/03/09 09:03:12;;;;;;;2.23;1.20;;;;;;;;;;5095285;28;20798;-73
2023/03/09 09:05:40;;;;;;;1.43;0.97;;;;;;;;;;5095205;28;20446;-73
2023/03/09 09:08:08;;;;;;;2.90;1.00;;;;;;;;;;5094933;28;20440;-72
2023/03/09 09:10:35;;;;;;;1.30;1.00;;;;;;;;;;5095029;28;20575;-73
2023/03/09 09:13:02;;;;;;;1.30;1.00;;;;;;;;;;5095212;28;20442;-73
2023/03/09 09:15:29;;;;;;;1.20;0.90;;;;;;;;;;5087496;28;20451;-72
2023/03/09 09:17:57;;;;;;;1.90;0.93;;;;;;;;;;5092356;28;20439;-72
2023/03/09 09:20:24;;;;;;;2.00;1.40;;;;;;;;;;5093389;28;20470;-73
2023/03/09 09:22:52;;;;;;;1.57;1.10;;;;;;;;;;5093763;28;20924;-72
2023/03/09 09:28:32;;;;;;;4.27;1.17;;;;;;;;;;5087455;28;20406;-72
2023/03/09 09:31:01;;;;;;;1.60;0.90;;;;;;;;;;5072782;28;20892;-72
2023/03/09 09:33:29;;;;;;;1.40;0.90;;;;;;;;;;5072567;28;20436;-72
2023/03/09 09:35:57;;;;;;;1.50;0.80;;;;;;;;;;5072802;28;20975;-72
2023/03/09 09:38:26;;;;;;;2.57;0.90;;;;;;;;;;5073107;28;20769;-72
2023/03/09 09:40:54;;;;;;;1.40;0.80;;;;;;;;;;5072718;28;20464;-72
2023/03/09 09:43:22;;;;;;;3.00;1.20;;;;;;;;;;5073002;28;20444;-72
2023/03/09 09:45:49;;;;;;;2.30;1.00;;;;;;;;;;5072569;28;20463;-72
2023/03/09 09:48:17;;;;;;;2.50;1.10;;;;;;;;;;5072873;28;20479;-73
2023/03/09 09:50:57;;;;;;;4.00;1.03;;;;;;;;;;5072601;28;20487;-73
2023/03/09 09:53:30;;;;;;;2.17;0.97;;;;;;;;;;5072867;28;20431;-73
2023/03/09 09:55:58;;;;;;;1.20;0.80;;;;;;;;;;5072607;28;20498;-72
2023/03/09 09:58:29;;;;;;;4.07;1.20;;;;;;;;;;5072869;28;20922;-73
2023/03/09 10:00:58;;;;;;;6.70;1.20;;;;;;;;;;5072621;28;20507;-72
2023/03/09 10:03:26;;;;;;;3.40;1.10;;;;;;;;;;5072407;28;20458;-72
2023/03/09 10:05:55;;;;;;;1.60;1.00;;;;;;;;;;5072611;28;20452;-72
2023/03/09 10:08:24;;;;;;;2.23;1.20;;;;;;;;;;5072189;28;21051;-72
2023/03/09 10:10:52;;;;;;;1.97;1.00;;;;;;;;;;5072028;28;20514;-72
2023/03/09 10:13:22;;;;;;;1.87;1.00;;;;;;;;;;5071943;28;20482;-72
2023/03/09 10:15:50;;;;;;;3.67;1.60;;;;;;;;;;5072146;28;20456;-73
2023/03/09 10:18:18;;;;;;;3.20;1.23;;;;;;;;;;5073500;28;20538;-73
2023/03/09 10:20:47;;;;;;;5.67;1.53;;;;;;;;;;5073350;28;20475;-73
2023/03/09 10:23:18;;;;;;;3.13;1.43;;;;;;;;;;5073348;28;20821;-72
2023/03/09 10:25:45;;;;;;;2.93;1.30;;;;;;;;;;5073329;28;20440;-73
2023/03/09 10:28:16;;;;;;;2.40;1.30;;;;;;;;;;5073586;28;20807;-72
2023/03/09 10:30:47;;;;;;;4.10;1.80;;;;;;;;;;5073129;28;20498;-73
2023/03/09 10:33:17;;;;;;;1.70;1.20;;;;;;;;;;5073393;28;20501;-72
2023/03/09 10:35:45;;;;;;;2.20;1.20;;;;;;;;;;5073406;28;20463;-72
2023/03/09 10:38:14;;;;;;;5.10;1.37;;;;;;;;;;5073470;28;20444;-73
2023/03/09 10:40:46;;;;;;;4.00;1.13;;;;;;;;;;5073325;28;20977;-73
2023/03/09 10:43:19;;;;;;;2.07;1.23;;;;;;;;;;5073074;28;20501;-73
2023/03/09 10:45:46;;;;;;;1.50;1.00;;;;;;;;;;5072964;28;20815;-72
2023/03/09 10:48:20;;;;;;;2.10;1.20;;;;;;;;;;5073354;28;20458;-73
2023/03/09 10:50:56;;;;;;;3.50;1.33;;;;;;;;;;5073166;28;20488;-73
2023/03/09 10:53:29;;;;;;;2.00;1.20;;;;;;;;;;5073318;28;20944;-73
2023/03/09 10:55:59;;;;;;;3.42;1.70;;;;;;;;;;5072192;28;20448;-72
2023/03/09 10:58:27;;;;;;;4.10;1.90;;;;;;;;;;5073164;28;20224;-72
2023/03/09 11:00:56;;;;;;;1.63;1.10;;;;;;;;;;5073188;28;21006;-73
2023/03/09 11:03:25;;;;;;;1.90;1.30;;;;;;;;;;5073231;28;20455;-73
2023/03/09 11:05:52;;;;;;;3.17;1.47;;;;;;;;;;5073137;28;20932;-73
2023/03/09 11:08:24;;;;;;;2.33;1.20;;;;;;;;;;5072774;28;20956;-73
2023/03/09 11:11:01;;;;;;;3.67;1.33;;;;;;;;;;5072887;28;20865;-73
2023/03/09 11:13:30;;;;;;;3.73;0.90;;;;;;;;;;5072975;28;20439;-73
2023/03/09 11:16:08;;;;;;;3.30;1.20;;;;;;;;;;5072794;28;20809;-73
2023/03/09 11:18:35;;;;;;;3.10;1.80;;;;;;;;;;5072986;28;20462;-72
2023/03/09 11:21:03;;;;;;;4.13;1.23;;;;;;;;;;5072761;28;20538;-72
2023/03/09 11:23:33;;;;;;;2.80;0.90;;;;;;;;;;5072929;28;20562;-72
2023/03/09 11:26:09;;;;;;;2.90;0.97;;;;;;;;;;5073333;28;20909;-72
2023/03/09 11:28:48;;;;;;;2.60;2.00;;;;;;;;;;5072694;28;20443;-73
2023/03/09 11:31:17;;;;;;;2.43;1.30;;;;;;;;;;5072706;28;20483;-73
2023/03/09 11:33:44;;;;;;;1.50;0.90;;;;;;;;;;5072883;28;20435;-72
2023/03/09 11:36:15;;;;;;;1.50;1.10;;;;;;;;;;5072565;28;20464;-72
2023/03/09 11:38:43;;;;;;;1.70;1.00;;;;;;;;;;5072550;28;20497;-72
2023/03/09 11:41:15;;;;;;;1.73;1.27;;;;;;;;;;5072691;28;20809;-72
2023/03/09 11:43:43;;;;;;;2.27;1.00;;;;;;;;;;5072666;28;20451;-72
2023/03/09 11:46:14;;;;;;;2.90;1.20;;;;;;;;;;5072413;28;20456;-73
2023/03/09 11:48:44;;;;;;;2.67;1.20;;;;;;;;;;5072508;28;20440;-72
2023/03/09 11:51:14;;;;;;;1.73;1.10;;;;;;;;;;5072539;28;20491;-72
2023/03/09 11:53:42;;;;;;;4.57;1.53;;;;;;;;;;5072467;28;20452;-73
2023/03/09 11:56:17;;;;;;;3.63;1.17;;;;;;;;;;5072467;28;20455;-73
2023/03/09 11:58:47;;;;;;;1.73;1.20;;;;;;;;;;5075802;28;20931;-73
2023/03/09 12:01:19;;;;;;;2.63;1.33;;;;;;;;;;5076187;28;20460;-72
2023/03/09 12:03:50;;;;;;;2.37;1.47;;;;;;;;;;5075949;28;20444;-72
2023/03/09 12:06:25;;;;;;;2.70;1.20;;;;;;;;;;5076149;28;20444;-73
2023/03/09 12:08:53;;;;;;;1.90;1.17;;;;;;;;;;5076034;28;20438;-73
2023/03/09 12:11:23;;;;;;;2.40;1.20;;;;;;;;;;5075898;28;20495;-75
2023/03/09 12:13:52;;;;;;;2.00;1.40;;;;;;;;;;5075729;28;20451;-75
2023/03/09 12:16:22;;;;;;;1.80;1.00;;;;;;;;;;5075668;28;20447;-75
2023/03/09 12:18:56;;;;;;;5.43;1.47;;;;;;;;;;5075787;28;20814;-75
2023/03/09 12:21:28;;;;;;;5.50;1.83;;;;;;;;;;5075872;28;20838;-75
2023/03/09 12:23:57;;;;;;;1.93;1.07;;;;;;;;;;5075771;28;20451;-75
2023/03/09 12:26:29;;;;;;;4.00;1.20;;;;;;;;;;5075786;28;20458;-75
2023/03/09 12:28:59;;;;;;;3.13;1.40;;;;;;;;;;5075785;28;20529;-72
2023/03/09 12:31:31;;;;;;;2.90;1.27;;;;;;;;;;5075396;28;20848;-72
2023/03/09 12:34:19;;;;;;;2.53;1.20;;;;;;;;;;5075515;28;20822;-72
2023/03/09 12:36:46;;;;;;;2.80;1.47;;;;;;;;;;5075259;28;20566;-72
2023/03/09 12:39:33;;;;;;;3.50;1.80;;;;;;;;;;5075622;28;20876;-72
2023/03/09 12:42:01;;;;;;;3.73;1.33;;;;;;;;;;5075127;28;20474;-72
2023/03/09 12:44:47;;;;;;;2.10;1.20;;;;;;;;;;5075448;28;20814;-72
2023/03/09 12:47:24;;;;;;;5.03;1.40;;;;;;;;;;5075508;28;20837;-73
2023/03/09 12:49:53;;;;;;;6.10;1.10;;;;;;;;;;5075099;28;20446;-73
2023/03/09 12:52:31;;;;;;;1.90;1.40;;;;;;;;;;5075248;28;20850;-72
2023/03/09 12:55:00;;;;;;;3.80;1.80;;;;;;;;;;5074891;28;20451;-72
2023/03/09 12:57:32;;;;;;;3.80;1.10;;;;;;;;;;5075144;28;20448;-72
2023/03/09 13:00:13;;;;;;;2.43;1.50;;;;;;;;;;5074935;28;21027;-72
2023/03/09 13:02:42;;;;;;;4.50;1.33;;;;;;;;;;5075209;28;20503;-72
2023/03/09 13:05:13;;;;;;;13.13;1.43;;;;;;;;;;5081660;28;20455;-72
2023/03/09 13:07:41;;;;;;;4.07;1.10;;;;;;;;;;5094741;28;20430;-72
2023/03/09 13:10:19;;;;;;;4.43;2.07;;;;;;;;;;5094987;28;20474;-72
2023/03/09 13:12:46;;;;;;;2.20;0.90;;;;;;;;;;5095047;28;20490;-72
2023/03/09 13:15:21;;;;;;;2.10;1.20;;;;;;;;;;5095262;28;20435;-72
2023/03/09 13:18:03;;;;;;;2.20;1.20;;;;;;;;;;5095026;28;20919;-72
2023/03/09 13:20:37;;;;;;;9.67;2.30;;;;;;;;;;5094899;28;20463;-72
2023/03/09 13:23:10;;;;;;;2.67;1.37;;;;;;;;;;5095079;28;20904;-72
2023/03/09 13:25:42;;;;;;;3.47;1.40;;;;;;;;;;5094949;28;20435;-72
2023/03/09 13:28:24;;;;;;;2.50;1.30;;;;;;;;;;5094898;28;20812;-72
2023/03/09 13:30:53;;;;;;;2.60;1.27;;;;;;;;;;5094677;28;21013;-72
2023/03/09 13:33:22;;;;;;;6.20;1.30;;;;;;;;;;5094470;28;20453;-72
2023/03/09 13:35:52;;;;;;;3.67;1.20;;;;;;;;;;5094613;28;20459;-72
2023/03/09 13:38:21;;;;;;;5.13;1.60;;;;;;;;;;5094412;28;20454;-72
2023/03/09 13:40:50;;;;;;;4.03;1.27;;;;;;;;;;5094248;28;20474;-72
2023/03/09 13:43:19;;;;;;;5.83;1.50;;;;;;;;;;5094375;28;20508;-72
2023/03/09 13:45:55;;;;;;;2.47;0.90;;;;;;;;;;5094599;28;20469;-72
2023/03/09 13:48:22;;;;;;;1.83;1.30;;;;;;;;;;5094606;28;20434;-72
2023/03/09 13:50:49;;;;;;;2.20;1.20;;;;;;;;;;5094316;28;20467;-72
2023/03/09 13:53:25;;;;;;;4.90;1.00;;;;;;;;;;5094199;28;20449;-72
2023/03/09 13:55:55;;;;;;;3.43;1.50;;;;;;;;;;5094315;28;20454;-72
2023/03/09 13:58:24;;;;;;;4.17;1.00;;;;;;;;;;5094046;28;20454;-72
2023/03/09 14:00:53;;;;;;;3.37;1.50;;;;;;;;;;5094221;28;20565;-72
2023/03/09 14:03:20;;;;;;;3.27;1.10;;;;;;;;;;5094205;28;20443;-72
2023/03/09 14:05:54;;;;;;;3.10;1.50;;;;;;;;;;5094089;28;20465;-72
2023/03/09 14:08:22;;;;;;;3.63;1.10;;;;;;;;;;5094820;28;20461;-72
2023/03/09 14:10:51;;;;;;;4.87;0.90;;;;;;;;;;5093797;28;20462;-72
2023/03/09 14:13:20;;;;;;;2.97;1.30;;;;;;;;;;5094058;28;20451;-72
2023/03/09 14:15:50;;;;;;;2.57;1.10;;;;;;;;;;5093738;28;20462;-72
2023/03/09 14:18:24;;;;;;;3.70;2.10;;;;;;;;;;5093734;28;20505;-71
2023/03/09 14:20:52;;;;;;;3.20;1.70;;;;;;;;;;5093235;28;20837;-72
2023/03/09 14:23:29;;;;;;;2.13;1.13;;;;;;;;;;5093902;28;20450;-72
2023/03/09 14:25:59;;;;;;;4.93;2.07;;;;;;;;;;5093592;28;20434;-72
2023/03/09 14:28:26;;;;;;;2.07;1.00;;;;;;;;;;5093779;28;20454;-72
2023/03/09 14:30:54;;;;;;;2.83;1.10;;;;;;;;;;5093401;28;20466;-72
2023/03/09 14:33:23;;;;;;;1.87;1.10;;;;;;;;;;5093413;28;20493;-72
2023/03/09 14:35:50;;;;;;;3.37;2.00;;;;;;;;;;5093590;28;20454;-72
2023/03/09 14:38:18;;;;;;;3.30;2.37;;;;;;;;;;5093459;28;20508;-72
2023/03/09 14:40:47;;;;;;;4.87;1.60;;;;;;;;;;5093533;28;20509;-72
2023/03/09 14:43:22;;;;;;;5.73;1.10;;;;;;;;;;5093539;28;20949;-71
2023/03/09 14:45:49;;;;;;;1.90;1.13;;;;;;;;;;5093484;28;20835;-72
2023/03/09 14:48:16;;;;;;;5.20;1.40;;;;;;;;;;5093513;28;20446;-71
2023/03/09 14:50:43;;;;;;;4.13;1.47;;;;;;;;;;5093268;28;21002;-72
2023/03/09 14:53:14;;;;;;;2.20;1.13;;;;;;;;;;5093104;28;20859;-72
2023/03/09 14:55:42;;;;;;;6.10;1.40;;;;;;;;;;5093540;28;20435;-72